sensor_id;sensor_type;location;lat;lon;timestamp;P1;durP1;ratioP1;P2;durP2;ratioP2
34960;SDS011;30789;52.030;7.110;2023-04-25T00:00:23;7.22;;;2.67;;
34960;SDS011;30789;52.030;7.110;2023-04-25T00:02:50;6.85;;;2.38;;
34960;SDS011;30789;52.030;7.110;2023-04-25T00:05:16;5.05;;;2.97;;
34960;SDS011;30789;52.030;7.110;2023-04-25T00:07:44;8.00;;;2.60;;
34960;SDS011;30789;52.030;7.110;2023-04-25T00:10:11;6.25;;;2.85;;
34960;SDS011;30789;52.030;7.110;2023-04-25T00:12:37;3.78;;;2.38;;
34960;SDS011;30789;52.030;7.110;2023-04-25T00:15:05;6.93;;;2.58;;
34960;SDS011;30789;52.030;7.110;2023-04-25T00:17:32;5.45;;;2.90;;
34960;SDS011;30789;52.030;7.110;2023-04-25T00:19:59;4.78;;;2.63;;
34960;SDS011;30789;52.030;7.110;2023-04-25T00:22:26;6.35;;;2.38;;
34960;SDS011;30789;52.030;7.110;2023-04-25T00:24:54;3.60;;;2.05;;
34960;SDS011;30789;52.030;7.110;2023-04-25T00:27:22;4.07;;;2.22;;
34960;SDS011;30789;52.030;7.110;2023-04-25T00:29:48;6.50;;;2.25;;
34960;SDS011;30789;52.030;7.110;2023-04-25T00:32:15;4.00;;;2.47;;
34960;SDS011;30789;52.030;7.110;2023-04-25T00:34:41;6.07;;;2.58;;
34960;SDS011;30789;52.030;7.110;2023-04-25T00:37:08;5.07;;;2.53;;
34960;SDS011;30789;52.030;7.110;2023-04-25T00:39:35;4.68;;;2.22;;
34960;SDS011;30789;52.030;7.110;2023-04-25T00:42:03;6.00;;;2.17;;
34960;SDS011;30789;52.030;7.110;2023-04-25T00:44:30;6.80;;;2.45;;
34960;SDS011;30789;52.030;7.110;2023-04-25T00:46:57;3.72;;;2.42;;
34960;SDS011;30789;52.030;7.110;2023-04-25T00:49:24;10.00;;;3.28;;
34960;SDS011;30789;52.030;7.110;2023-04-25T00:51:51;6.50;;;2.75;;
34960;SDS011;30789;52.030;7.110;2023-04-25T00:54:17;9.23;;;3.00;;
34960;SDS011;30789;52.030;7.110;2023-04-25T00:56:44;10.80;;;3.10;;
34960;SDS011;30789;52.030;7.110;2023-04-25T00:59:12;14.52;;;3.22;;
34960;SDS011;30789;52.030;7.110;2023-04-25T01:01:41;11.05;;;3.10;;
34960;SDS011;30789;52.030;7.110;2023-04-25T01:04:08;9.55;;;3.67;;
34960;SDS011;30789;52.030;7.110;2023-04-25T01:06:35;8.05;;;3.20;;
34960;SDS011;30789;52.030;7.110;2023-04-25T01:09:02;10.80;;;3.53;;
34960;SDS011;30789;52.030;7.110;2023-04-25T01:11:29;13.38;;;3.53;;
34960;SDS011;30789;52.030;7.110;2023-04-25T01:13:56;14.57;;;3.13;;
34960;SDS011;30789;52.030;7.110;2023-04-25T01:16:24;12.73;;;4.13;;
34960;SDS011;30789;52.030;7.110;2023-04-25T01:18:51;9.77;;;3.33;;
34960;SDS011;30789;52.030;7.110;2023-04-25T01:21:19;11.57;;;3.35;;
34960;SDS011;30789;52.030;7.110;2023-04-25T01:23:46;14.45;;;3.80;;
34960;SDS011;30789;52.030;7.110;2023-04-25T01:26:13;13.63;;;3.60;;
34960;SDS011;30789;52.030;7.110;2023-04-25T01:28:40;10.55;;;3.90;;
34960;SDS011;30789;52.030;7.110;2023-04-25T01:31:06;15.43;;;3.60;;
34960;SDS011;30789;52.030;7.110;2023-04-25T01:33:33;11.57;;;3.20;;
34960;SDS011;30789;52.030;7.110;2023-04-25T01:36:00;8.55;;;3.13;;
34960;SDS011;30789;52.030;7.110;2023-04-25T01:38:29;13.95;;;4.28;;
34960;SDS011;30789;52.030;7.110;2023-04-25T01:40:55;9.00;;;2.83;;
34960;SDS011;30789;52.030;7.110;2023-04-25T01:43:22;8.68;;;2.92;;
34960;SDS011;30789;52.030;7.110;2023-04-25T01:45:49;11.82;;;3.47;;
34960;SDS011;30789;52.030;7.110;2023-04-25T01:48:16;13.40;;;3.50;;
34960;SDS011;30789;52.030;7.110;2023-04-25T01:50:43;9.63;;;3.30;;
34960;SDS011;30789;52.030;7.110;2023-04-25T01:53:10;9.32;;;2.92;;
34960;SDS011;30789;52.030;7.110;2023-04-25T01:55:40;12.55;;;3.75;;
34960;SDS011;30789;52.030;7.110;2023-04-25T01:58:07;4.70;;;2.60;;
34960;SDS011;30789;52.030;7.110;2023-04-25T02:00:34;13.90;;;3.30;;
34960;SDS011;30789;52.030;7.110;2023-04-25T02:03:03;11.95;;;3.20;;
34960;SDS011;30789;52.030;7.110;2023-04-25T02:05:33;12.57;;;3.72;;
34960;SDS011;30789;52.030;7.110;2023-04-25T02:08:00;10.88;;;3.28;;
34960;SDS011;30789;52.030;7.110;2023-04-25T02:10:27;9.65;;;2.83;;
34960;SDS011;30789;52.030;7.110;2023-04-25T02:12:54;11.23;;;3.55;;
34960;SDS011;30789;52.030;7.110;2023-04-25T02:15:22;9.85;;;3.38;;
34960;SDS011;30789;52.030;7.110;2023-04-25T02:17:49;5.97;;;2.40;;
34960;SDS011;30789;52.030;7.110;2023-04-25T02:20:17;9.05;;;2.90;;
34960;SDS011;30789;52.030;7.110;2023-04-25T02:22:44;11.98;;;3.70;;
34960;SDS011;30789;52.030;7.110;2023-04-25T02:25:11;15.18;;;3.70;;
34960;SDS011;30789;52.030;7.110;2023-04-25T02:27:38;9.35;;;3.40;;
34960;SDS011;30789;52.030;7.110;2023-04-25T02:30:07;12.75;;;3.58;;
34960;SDS011;30789;52.030;7.110;2023-04-25T02:32:34;12.90;;;3.58;;
34960;SDS011;30789;52.030;7.110;2023-04-25T02:35:00;8.45;;;3.33;;
34960;SDS011;30789;52.030;7.110;2023-04-25T02:37:28;10.57;;;3.67;;
34960;SDS011;30789;52.030;7.110;2023-04-25T02:39:55;9.07;;;3.28;;
34960;SDS011;30789;52.030;7.110;2023-04-25T02:42:21;12.18;;;3.83;;
34960;SDS011;30789;52.030;7.110;2023-04-25T02:44:48;9.82;;;3.97;;
34960;SDS011;30789;52.030;7.110;2023-04-25T02:47:16;10.95;;;3.75;;
34960;SDS011;30789;52.030;7.110;2023-04-25T02:49:42;14.50;;;3.15;;
34960;SDS011;30789;52.030;7.110;2023-04-25T02:52:09;14.63;;;3.40;;
34960;SDS011;30789;52.030;7.110;2023-04-25T02:54:35;17.23;;;3.10;;
34960;SDS011;30789;52.030;7.110;2023-04-25T02:57:01;14.15;;;3.78;;
34960;SDS011;30789;52.030;7.110;2023-04-25T02:59:28;12.30;;;3.70;;
34960;SDS011;30789;52.030;7.110;2023-04-25T03:01:54;12.75;;;3.30;;
34960;SDS011;30789;52.030;7.110;2023-04-25T03:04:22;15.57;;;3.03;;
34960;SDS011;30789;52.030;7.110;2023-04-25T03:06:49;10.00;;;3.40;;
34960;SDS011;30789;52.030;7.110;2023-04-25T03:09:16;12.07;;;3.88;;
34960;SDS011;30789;52.030;7.110;2023-04-25T03:11:43;14.02;;;3.25;;
34960;SDS011;30789;52.030;7.110;2023-04-25T03:14:10;7.80;;;2.67;;
34960;SDS011;30789;52.030;7.110;2023-04-25T03:16:37;14.75;;;3.30;;
34960;SDS011;30789;52.030;7.110;2023-04-25T03:19:04;11.10;;;3.03;;
34960;SDS011;30789;52.030;7.110;2023-04-25T03:21:32;7.47;;;2.92;;
34960;SDS011;30789;52.030;7.110;2023-04-25T03:24:01;13.75;;;3.75;;
34960;SDS011;30789;52.030;7.110;2023-04-25T03:26:29;14.30;;;3.60;;
34960;SDS011;30789;52.030;7.110;2023-04-25T03:28:55;12.93;;;2.92;;
34960;SDS011;30789;52.030;7.110;2023-04-25T03:31:22;10.52;;;3.20;;
34960;SDS011;30789;52.030;7.110;2023-04-25T03:33:48;8.57;;;3.25;;
34960;SDS011;30789;52.030;7.110;2023-04-25T03:36:14;11.63;;;3.30;;
34960;SDS011;30789;52.030;7.110;2023-04-25T03:38:42;7.15;;;2.90;;
34960;SDS011;30789;52.030;7.110;2023-04-25T03:41:09;13.25;;;3.50;;
34960;SDS011;30789;52.030;7.110;2023-04-25T03:43:35;10.57;;;3.00;;
34960;SDS011;30789;52.030;7.110;2023-04-25T03:46:02;16.08;;;3.78;;
34960;SDS011;30789;52.030;7.110;2023-04-25T03:48:28;15.45;;;2.95;;
34960;SDS011;30789;52.030;7.110;2023-04-25T03:50:55;12.05;;;3.70;;
34960;SDS011;30789;52.030;7.110;2023-04-25T03:53:21;11.05;;;3.33;;
34960;SDS011;30789;52.030;7.110;2023-04-25T03:55:49;14.85;;;3.72;;
34960;SDS011;30789;52.030;7.110;2023-04-25T03:58:16;9.48;;;3.55;;
34960;SDS011;30789;52.030;7.110;2023-04-25T04:00:42;12.23;;;3.28;;
34960;SDS011;30789;52.030;7.110;2023-04-25T04:03:09;11.00;;;2.92;;
34960;SDS011;30789;52.030;7.110;2023-04-25T04:05:35;9.63;;;3.15;;
34960;SDS011;30789;52.030;7.110;2023-04-25T04:08:05;13.88;;;3.78;;
34960;SDS011;30789;52.030;7.110;2023-04-25T04:10:32;17.50;;;3.58;;
34960;SDS011;30789;52.030;7.110;2023-04-25T04:12:59;16.00;;;3.97;;
34960;SDS011;30789;52.030;7.110;2023-04-25T04:15:26;9.52;;;2.60;;
34960;SDS011;30789;52.030;7.110;2023-04-25T04:17:52;14.95;;;3.42;;
34960;SDS011;30789;52.030;7.110;2023-04-25T04:20:19;12.23;;;2.78;;
34960;SDS011;30789;52.030;7.110;2023-04-25T04:22:46;10.75;;;3.08;;
34960;SDS011;30789;52.030;7.110;2023-04-25T04:25:12;9.93;;;3.60;;
34960;SDS011;30789;52.030;7.110;2023-04-25T04:27:39;8.25;;;2.50;;
34960;SDS011;30789;52.030;7.110;2023-04-25T04:30:08;12.60;;;3.42;;
34960;SDS011;30789;52.030;7.110;2023-04-25T04:32:34;7.72;;;3.67;;
34960;SDS011;30789;52.030;7.110;2023-04-25T04:35:01;12.40;;;3.00;;
34960;SDS011;30789;52.030;7.110;2023-04-25T04:37:29;13.43;;;3.72;;
34960;SDS011;30789;52.030;7.110;2023-04-25T04:39:56;11.93;;;3.15;;
34960;SDS011;30789;52.030;7.110;2023-04-25T04:42:22;15.73;;;3.42;;
34960;SDS011;30789;52.030;7.110;2023-04-25T04:44:49;11.25;;;3.20;;
34960;SDS011;30789;52.030;7.110;2023-04-25T04:47:18;8.57;;;2.95;;
34960;SDS011;30789;52.030;7.110;2023-04-25T04:49:45;15.25;;;3.90;;
34960;SDS011;30789;52.030;7.110;2023-04-25T04:52:11;12.40;;;3.67;;
34960;SDS011;30789;52.030;7.110;2023-04-25T04:54:38;11.80;;;4.10;;
34960;SDS011;30789;52.030;7.110;2023-04-25T04:57:04;15.10;;;3.47;;
34960;SDS011;30789;52.030;7.110;2023-04-25T04:59:31;11.25;;;2.97;;
34960;SDS011;30789;52.030;7.110;2023-04-25T05:01:57;9.05;;;3.47;;
34960;SDS011;30789;52.030;7.110;2023-04-25T05:04:25;11.15;;;3.70;;
34960;SDS011;30789;52.030;7.110;2023-04-25T05:06:51;9.25;;;3.42;;
34960;SDS011;30789;52.030;7.110;2023-04-25T05:09:18;12.50;;;3.20;;
34960;SDS011;30789;52.030;7.110;2023-04-25T05:11:44;12.77;;;3.33;;
34960;SDS011;30789;52.030;7.110;2023-04-25T05:14:11;14.32;;;3.40;;
34960;SDS011;30789;52.030;7.110;2023-04-25T05:16:37;10.55;;;3.72;;
34960;SDS011;30789;52.030;7.110;2023-04-25T05:19:03;8.02;;;3.13;;
34960;SDS011;30789;52.030;7.110;2023-04-25T05:21:31;8.70;;;3.38;;
34960;SDS011;30789;52.030;7.110;2023-04-25T05:23:58;11.77;;;3.83;;
34960;SDS011;30789;52.030;7.110;2023-04-25T05:26:25;14.23;;;3.83;;
34960;SDS011;30789;52.030;7.110;2023-04-25T05:28:55;10.73;;;3.47;;
34960;SDS011;30789;52.030;7.110;2023-04-25T05:31:22;11.93;;;3.25;;
34960;SDS011;30789;52.030;7.110;2023-04-25T05:33:48;8.80;;;3.00;;
34960;SDS011;30789;52.030;7.110;2023-04-25T05:36:15;10.65;;;3.83;;
34960;SDS011;30789;52.030;7.110;2023-04-25T05:38:43;10.57;;;3.17;;
34960;SDS011;30789;52.030;7.110;2023-04-25T05:41:09;12.15;;;4.00;;
34960;SDS011;30789;52.030;7.110;2023-04-25T05:43:36;5.50;;;3.00;;
34960;SDS011;30789;52.030;7.110;2023-04-25T05:46:02;8.57;;;3.08;;
34960;SDS011;30789;52.030;7.110;2023-04-25T05:48:29;8.05;;;3.03;;
34960;SDS011;30789;52.030;7.110;2023-04-25T05:50:56;11.50;;;3.13;;
34960;SDS011;30789;52.030;7.110;2023-04-25T05:53:22;9.40;;;3.08;;
34960;SDS011;30789;52.030;7.110;2023-04-25T05:55:50;8.85;;;2.80;;
34960;SDS011;30789;52.030;7.110;2023-04-25T05:58:16;10.23;;;3.47;;
34960;SDS011;30789;52.030;7.110;2023-04-25T06:00:43;9.75;;;2.83;;
34960;SDS011;30789;52.030;7.110;2023-04-25T06:03:09;8.82;;;2.72;;
34960;SDS011;30789;52.030;7.110;2023-04-25T06:05:36;7.53;;;2.50;;
34960;SDS011;30789;52.030;7.110;2023-04-25T06:08:02;8.75;;;3.10;;
34960;SDS011;30789;52.030;7.110;2023-04-25T06:10:29;11.13;;;3.33;;
34960;SDS011;30789;52.030;7.110;2023-04-25T06:12:57;7.80;;;2.78;;
34960;SDS011;30789;52.030;7.110;2023-04-25T06:15:23;7.07;;;2.50;;
34960;SDS011;30789;52.030;7.110;2023-04-25T06:17:50;8.00;;;2.90;;
34960;SDS011;30789;52.030;7.110;2023-04-25T06:20:16;7.78;;;2.60;;
34960;SDS011;30789;52.030;7.110;2023-04-25T06:22:43;10.05;;;2.70;;
34960;SDS011;30789;52.030;7.110;2023-04-25T06:25:09;6.05;;;2.13;;
34960;SDS011;30789;52.030;7.110;2023-04-25T06:27:36;10.73;;;3.33;;
34960;SDS011;30789;52.030;7.110;2023-04-25T06:30:04;8.23;;;2.47;;
34960;SDS011;30789;52.030;7.110;2023-04-25T06:32:32;8.40;;;2.50;;
34960;SDS011;30789;52.030;7.110;2023-04-25T06:34:59;7.75;;;2.63;;
34960;SDS011;30789;52.030;7.110;2023-04-25T06:37:26;7.60;;;2.53;;
34960;SDS011;30789;52.030;7.110;2023-04-25T06:39:52;11.05;;;3.95;;
34960;SDS011;30789;52.030;7.110;2023-04-25T06:42:18;7.80;;;2.60;;
34960;SDS011;30789;52.030;7.110;2023-04-25T06:44:45;12.23;;;3.13;;
34960;SDS011;30789;52.030;7.110;2023-04-25T06:47:13;10.18;;;2.35;;
34960;SDS011;30789;52.030;7.110;2023-04-25T06:49:39;11.52;;;2.72;;
34960;SDS011;30789;52.030;7.110;2023-04-25T06:52:07;8.68;;;3.28;;
34960;SDS011;30789;52.030;7.110;2023-04-25T06:54:33;11.10;;;2.95;;
34960;SDS011;30789;52.030;7.110;2023-04-25T06:57:00;11.52;;;2.47;;
34960;SDS011;30789;52.030;7.110;2023-04-25T06:59:26;8.82;;;2.72;;
34960;SDS011;30789;52.030;7.110;2023-04-25T07:01:53;14.30;;;3.03;;
34960;SDS011;30789;52.030;7.110;2023-04-25T07:04:21;10.80;;;2.40;;
34960;SDS011;30789;52.030;7.110;2023-04-25T07:06:47;17.52;;;2.83;;
34960;SDS011;30789;52.030;7.110;2023-04-25T07:09:14;9.98;;;1.98;;
34960;SDS011;30789;52.030;7.110;2023-04-25T07:11:40;9.27;;;2.63;;
34960;SDS011;30789;52.030;7.110;2023-04-25T07:14:07;8.85;;;2.20;;
34960;SDS011;30789;52.030;7.110;2023-04-25T07:16:33;5.43;;;1.98;;
34960;SDS011;30789;52.030;7.110;2023-04-25T07:19:00;6.63;;;1.90;;
34960;SDS011;30789;52.030;7.110;2023-04-25T07:21:28;9.70;;;2.08;;
34960;SDS011;30789;52.030;7.110;2023-04-25T07:23:55;7.20;;;2.10;;
34960;SDS011;30789;52.030;7.110;2023-04-25T07:26:22;6.55;;;1.92;;
34960;SDS011;30789;52.030;7.110;2023-04-25T07:28:48;14.02;;;2.30;;
34960;SDS011;30789;52.030;7.110;2023-04-25T07:31:16;3.80;;;1.77;;
34960;SDS011;30789;52.030;7.110;2023-04-25T07:33:43;8.75;;;2.03;;
34960;SDS011;30789;52.030;7.110;2023-04-25T07:36:09;10.50;;;2.20;;
34960;SDS011;30789;52.030;7.110;2023-04-25T07:38:37;16.00;;;2.00;;
34960;SDS011;30789;52.030;7.110;2023-04-25T07:41:04;8.65;;;1.77;;
34960;SDS011;30789;52.030;7.110;2023-04-25T07:43:30;5.95;;;1.80;;
34960;SDS011;30789;52.030;7.110;2023-04-25T07:45:57;6.30;;;2.03;;
34960;SDS011;30789;52.030;7.110;2023-04-25T07:48:24;5.88;;;1.60;;
34960;SDS011;30789;52.030;7.110;2023-04-25T07:50:50;9.02;;;2.40;;
34960;SDS011;30789;52.030;7.110;2023-04-25T07:53:16;7.93;;;2.20;;
34960;SDS011;30789;52.030;7.110;2023-04-25T07:55:45;7.32;;;1.75;;
34960;SDS011;30789;52.030;7.110;2023-04-25T07:58:11;6.82;;;2.10;;
34960;SDS011;30789;52.030;7.110;2023-04-25T08:00:38;4.60;;;1.77;;
34960;SDS011;30789;52.030;7.110;2023-04-25T08:03:06;6.72;;;2.35;;
34960;SDS011;30789;52.030;7.110;2023-04-25T08:05:33;6.18;;;2.28;;
34960;SDS011;30789;52.030;7.110;2023-04-25T08:07:59;7.05;;;2.00;;
34960;SDS011;30789;52.030;7.110;2023-04-25T08:10:27;12.13;;;2.42;;
34960;SDS011;30789;52.030;7.110;2023-04-25T08:12:55;9.00;;;2.13;;
34960;SDS011;30789;52.030;7.110;2023-04-25T08:15:21;9.93;;;2.17;;
34960;SDS011;30789;52.030;7.110;2023-04-25T08:17:48;8.80;;;2.10;;
34960;SDS011;30789;52.030;7.110;2023-04-25T08:20:14;8.68;;;1.55;;
34960;SDS011;30789;52.030;7.110;2023-04-25T08:22:41;4.00;;;1.55;;
34960;SDS011;30789;52.030;7.110;2023-04-25T08:25:07;5.40;;;1.33;;
34960;SDS011;30789;52.030;7.110;2023-04-25T08:27:34;7.72;;;2.17;;
34960;SDS011;30789;52.030;7.110;2023-04-25T08:30:02;5.00;;;1.77;;
34960;SDS011;30789;52.030;7.110;2023-04-25T08:32:30;5.85;;;1.90;;
34960;SDS011;30789;52.030;7.110;2023-04-25T08:34:56;8.40;;;1.45;;
34960;SDS011;30789;52.030;7.110;2023-04-25T08:37:23;6.88;;;1.40;;
34960;SDS011;30789;52.030;7.110;2023-04-25T08:39:50;8.05;;;1.98;;
34960;SDS011;30789;52.030;7.110;2023-04-25T08:42:17;5.38;;;1.90;;
34960;SDS011;30789;52.030;7.110;2023-04-25T08:44:44;4.32;;;1.42;;
34960;SDS011;30789;52.030;7.110;2023-04-25T08:47:13;6.95;;;1.50;;
34960;SDS011;30789;52.030;7.110;2023-04-25T08:49:39;5.13;;;1.60;;
34960;SDS011;30789;52.030;7.110;2023-04-25T08:52:10;2.45;;;1.27;;
34960;SDS011;30789;52.030;7.110;2023-04-25T08:54:40;9.07;;;1.70;;
34960;SDS011;30789;52.030;7.110;2023-04-25T08:57:09;4.65;;;1.10;;
34960;SDS011;30789;52.030;7.110;2023-04-25T08:59:36;5.78;;;1.10;;
34960;SDS011;30789;52.030;7.110;2023-04-25T09:02:04;3.65;;;0.77;;
34960;SDS011;30789;52.030;7.110;2023-04-25T09:04:31;5.00;;;1.48;;
34960;SDS011;30789;52.030;7.110;2023-04-25T09:06:58;7.13;;;1.35;;
34960;SDS011;30789;52.030;7.110;2023-04-25T09:09:25;4.47;;;1.30;;
34960;SDS011;30789;52.030;7.110;2023-04-25T09:11:51;4.70;;;1.05;;
34960;SDS011;30789;52.030;7.110;2023-04-25T09:14:20;7.68;;;1.15;;
34960;SDS011;30789;52.030;7.110;2023-04-25T09:16:57;4.72;;;0.90;;
34960;SDS011;30789;52.030;7.110;2023-04-25T09:19:25;6.85;;;1.40;;
34960;SDS011;30789;52.030;7.110;2023-04-25T09:21:55;5.60;;;1.30;;
34960;SDS011;30789;52.030;7.110;2023-04-25T09:24:29;4.05;;;0.82;;
34960;SDS011;30789;52.030;7.110;2023-04-25T09:26:58;2.95;;;0.90;;
34960;SDS011;30789;52.030;7.110;2023-04-25T09:29:29;5.45;;;0.90;;
34960;SDS011;30789;52.030;7.110;2023-04-25T09:34:53;3.58;;;1.17;;
34960;SDS011;30789;52.030;7.110;2023-04-25T09:37:23;6.43;;;1.27;;
34960;SDS011;30789;52.030;7.110;2023-04-25T09:39:52;4.90;;;1.30;;
34960;SDS011;30789;52.030;7.110;2023-04-25T09:42:21;3.38;;;0.80;;
34960;SDS011;30789;52.030;7.110;2023-04-25T09:44:49;3.85;;;0.95;;
34960;SDS011;30789;52.030;7.110;2023-04-25T09:47:18;3.30;;;0.98;;
34960;SDS011;30789;52.030;7.110;2023-04-25T09:49:46;6.10;;;0.85;;
34960;SDS011;30789;52.030;7.110;2023-04-25T09:52:14;3.20;;;0.73;;
34960;SDS011;30789;52.030;7.110;2023-04-25T09:54:43;7.68;;;0.90;;
34960;SDS011;30789;52.030;7.110;2023-04-25T09:57:11;3.42;;;0.70;;
34960;SDS011;30789;52.030;7.110;2023-04-25T09:59:39;4.45;;;1.00;;
34960;SDS011;30789;52.030;7.110;2023-04-25T10:02:09;3.80;;;0.98;;
34960;SDS011;30789;52.030;7.110;2023-04-25T10:04:37;5.53;;;1.17;;
34960;SDS011;30789;52.030;7.110;2023-04-25T10:07:05;3.80;;;0.93;;
34960;SDS011;30789;52.030;7.110;2023-04-25T10:09:33;3.38;;;0.93;;
34960;SDS011;30789;52.030;7.110;2023-04-25T10:12:03;7.03;;;1.25;;
34960;SDS011;30789;52.030;7.110;2023-04-25T10:14:31;3.33;;;1.23;;
34960;SDS011;30789;52.030;7.110;2023-04-25T10:16:57;4.18;;;0.95;;
34960;SDS011;30789;52.030;7.110;2023-04-25T10:19:25;4.80;;;1.30;;
34960;SDS011;30789;52.030;7.110;2023-04-25T10:21:52;7.07;;;1.13;;
34960;SDS011;30789;52.030;7.110;2023-04-25T10:24:22;5.03;;;1.08;;
34960;SDS011;30789;52.030;7.110;2023-04-25T10:26:51;5.28;;;1.25;;
34960;SDS011;30789;52.030;7.110;2023-04-25T10:29:22;5.30;;;1.25;;
34960;SDS011;30789;52.030;7.110;2023-04-25T10:31:50;5.22;;;1.10;;
34960;SDS011;30789;52.030;7.110;2023-04-25T10:34:16;3.38;;;1.00;;
34960;SDS011;30789;52.030;7.110;2023-04-25T10:36:48;3.22;;;0.98;;
34960;SDS011;30789;52.030;7.110;2023-04-25T10:39:21;4.95;;;1.23;;
34960;SDS011;30789;52.030;7.110;2023-04-25T10:41:51;3.20;;;1.02;;
34960;SDS011;30789;52.030;7.110;2023-04-25T10:44:19;2.58;;;0.80;;
34960;SDS011;30789;52.030;7.110;2023-04-25T10:46:47;3.85;;;0.80;;
34960;SDS011;30789;52.030;7.110;2023-04-25T10:49:28;1.42;;;0.68;;
34960;SDS011;30789;52.030;7.110;2023-04-25T10:52:10;4.50;;;1.05;;
34960;SDS011;30789;52.030;7.110;2023-04-25T10:54:40;1.92;;;0.77;;
34960;SDS011;30789;52.030;7.110;2023-04-25T10:57:07;3.10;;;0.85;;
34960;SDS011;30789;52.030;7.110;2023-04-25T10:59:33;3.58;;;0.80;;
34960;SDS011;30789;52.030;7.110;2023-04-25T11:02:01;3.60;;;0.93;;
34960;SDS011;30789;52.030;7.110;2023-04-25T11:04:37;3.15;;;0.70;;
34960;SDS011;30789;52.030;7.110;2023-04-25T11:07:06;5.63;;;0.95;;
34960;SDS011;30789;52.030;7.110;2023-04-25T11:09:38;1.25;;;0.75;;
34960;SDS011;30789;52.030;7.110;2023-04-25T11:12:07;2.33;;;0.70;;
34960;SDS011;30789;52.030;7.110;2023-04-25T11:14:35;3.78;;;0.90;;
34960;SDS011;30789;52.030;7.110;2023-04-25T11:17:03;1.25;;;0.68;;
34960;SDS011;30789;52.030;7.110;2023-04-25T11:19:30;3.03;;;0.85;;
34960;SDS011;30789;52.030;7.110;2023-04-25T11:21:57;5.00;;;1.05;;
34960;SDS011;30789;52.030;7.110;2023-04-25T11:24:25;2.13;;;0.90;;
34960;SDS011;30789;52.030;7.110;2023-04-25T11:26:52;4.32;;;0.85;;
34960;SDS011;30789;52.030;7.110;2023-04-25T11:29:21;2.72;;;1.10;;
34960;SDS011;30789;52.030;7.110;2023-04-25T11:31:48;2.85;;;1.13;;
34960;SDS011;30789;52.030;7.110;2023-04-25T11:34:17;2.90;;;0.93;;
34960;SDS011;30789;52.030;7.110;2023-04-25T11:36:44;2.92;;;1.08;;
34960;SDS011;30789;52.030;7.110;2023-04-25T11:39:11;7.40;;;1.30;;
34960;SDS011;30789;52.030;7.110;2023-04-25T11:41:38;4.30;;;0.90;;
34960;SDS011;30789;52.030;7.110;2023-04-25T11:44:05;4.13;;;1.20;;
34960;SDS011;30789;52.030;7.110;2023-04-25T11:46:33;5.03;;;0.90;;
34960;SDS011;30789;52.030;7.110;2023-04-25T11:49:00;2.15;;;0.80;;
34960;SDS011;30789;52.030;7.110;2023-04-25T11:51:29;3.13;;;1.08;;
34960;SDS011;30789;52.030;7.110;2023-04-25T11:53:55;3.50;;;0.95;;
34960;SDS011;30789;52.030;7.110;2023-04-25T11:56:22;1.65;;;1.00;;
34960;SDS011;30789;52.030;7.110;2023-04-25T11:58:58;2.17;;;0.80;;
34960;SDS011;30789;52.030;7.110;2023-04-25T12:01:27;3.25;;;0.63;;
34960;SDS011;30789;52.030;7.110;2023-04-25T12:03:55;4.93;;;0.75;;
34960;SDS011;30789;52.030;7.110;2023-04-25T12:06:25;4.13;;;0.75;;
34960;SDS011;30789;52.030;7.110;2023-04-25T12:09:01;2.92;;;0.73;;
34960;SDS011;30789;52.030;7.110;2023-04-25T12:11:29;2.53;;;0.60;;
34960;SDS011;30789;52.030;7.110;2023-04-25T12:14:01;2.33;;;0.70;;
34960;SDS011;30789;52.030;7.110;2023-04-25T12:16:28;2.88;;;0.80;;
34960;SDS011;30789;52.030;7.110;2023-04-25T12:18:55;3.78;;;0.82;;
34960;SDS011;30789;52.030;7.110;2023-04-25T12:21:22;2.35;;;0.60;;
34960;SDS011;30789;52.030;7.110;2023-04-25T12:23:48;2.50;;;0.90;;
34960;SDS011;30789;52.030;7.110;2023-04-25T12:26:16;2.67;;;0.85;;
34960;SDS011;30789;52.030;7.110;2023-04-25T12:28:45;1.25;;;0.55;;
34960;SDS011;30789;52.030;7.110;2023-04-25T12:31:13;2.38;;;0.50;;
34960;SDS011;30789;52.030;7.110;2023-04-25T12:33:42;2.13;;;0.50;;
34960;SDS011;30789;52.030;7.110;2023-04-25T12:36:12;3.10;;;0.65;;
34960;SDS011;30789;52.030;7.110;2023-04-25T12:38:40;1.38;;;0.75;;
34960;SDS011;30789;52.030;7.110;2023-04-25T12:41:08;2.40;;;0.80;;
34960;SDS011;30789;52.030;7.110;2023-04-25T12:43:36;3.95;;;0.70;;
34960;SDS011;30789;52.030;7.110;2023-04-25T12:46:03;3.97;;;0.70;;
34960;SDS011;30789;52.030;7.110;2023-04-25T12:48:29;1.77;;;0.70;;
34960;SDS011;30789;52.030;7.110;2023-04-25T12:50:56;2.03;;;0.80;;
34960;SDS011;30789;52.030;7.110;2023-04-25T12:53:23;3.08;;;0.77;;
34960;SDS011;30789;52.030;7.110;2023-04-25T12:55:49;5.18;;;0.80;;
34960;SDS011;30789;52.030;7.110;2023-04-25T12:58:17;2.33;;;0.75;;
34960;SDS011;30789;52.030;7.110;2023-04-25T13:00:45;2.42;;;0.85;;
34960;SDS011;30789;52.030;7.110;2023-04-25T13:03:12;2.78;;;0.88;;
34960;SDS011;30789;52.030;7.110;2023-04-25T13:05:39;3.03;;;0.93;;
34960;SDS011;30789;52.030;7.110;2023-04-25T13:08:06;4.20;;;0.82;;
34960;SDS011;30789;52.030;7.110;2023-04-25T13:10:33;2.97;;;1.17;;
34960;SDS011;30789;52.030;7.110;2023-04-25T13:13:01;3.10;;;1.10;;
34960;SDS011;30789;52.030;7.110;2023-04-25T13:15:27;3.50;;;1.30;;
34960;SDS011;30789;52.030;7.110;2023-04-25T13:17:55;2.70;;;0.63;;
34960;SDS011;30789;52.030;7.110;2023-04-25T13:20:22;3.38;;;1.10;;
34960;SDS011;30789;52.030;7.110;2023-04-25T13:22:48;2.25;;;1.10;;
34960;SDS011;30789;52.030;7.110;2023-04-25T13:25:15;2.72;;;0.95;;
34960;SDS011;30789;52.030;7.110;2023-04-25T13:27:41;2.83;;;0.52;;
34960;SDS011;30789;52.030;7.110;2023-04-25T13:30:09;3.45;;;0.73;;
34960;SDS011;30789;52.030;7.110;2023-04-25T13:32:36;2.22;;;0.70;;
34960;SDS011;30789;52.030;7.110;2023-04-25T13:35:05;3.42;;;0.55;;
34960;SDS011;30789;52.030;7.110;2023-04-25T13:37:33;1.70;;;0.70;;
34960;SDS011;30789;52.030;7.110;2023-04-25T13:40:00;3.08;;;0.80;;
34960;SDS011;30789;52.030;7.110;2023-04-25T13:42:29;1.60;;;0.80;;
34960;SDS011;30789;52.030;7.110;2023-04-25T13:44:55;1.98;;;0.93;;
34960;SDS011;30789;52.030;7.110;2023-04-25T13:47:22;3.97;;;0.73;;
34960;SDS011;30789;52.030;7.110;2023-04-25T13:49:49;2.45;;;0.85;;
34960;SDS011;30789;52.030;7.110;2023-04-25T13:52:16;2.50;;;0.75;;
34960;SDS011;30789;52.030;7.110;2023-04-25T13:54:44;4.90;;;0.85;;
34960;SDS011;30789;52.030;7.110;2023-04-25T13:57:11;1.90;;;0.70;;
34960;SDS011;30789;52.030;7.110;2023-04-25T13:59:37;2.25;;;0.73;;
34960;SDS011;30789;52.030;7.110;2023-04-25T14:02:05;4.28;;;0.80;;
34960;SDS011;30789;52.030;7.110;2023-04-25T14:04:32;2.45;;;1.00;;
34960;SDS011;30789;52.030;7.110;2023-04-25T14:06:59;1.48;;;0.70;;
34960;SDS011;30789;52.030;7.110;2023-04-25T14:09:28;1.98;;;0.88;;
34960;SDS011;30789;52.030;7.110;2023-04-25T14:11:55;1.38;;;0.73;;
34960;SDS011;30789;52.030;7.110;2023-04-25T14:14:22;3.00;;;0.80;;
34960;SDS011;30789;52.030;7.110;2023-04-25T14:16:49;3.03;;;0.98;;
34960;SDS011;30789;52.030;7.110;2023-04-25T14:19:19;1.73;;;0.55;;
34960;SDS011;30789;52.030;7.110;2023-04-25T14:21:46;2.13;;;0.52;;
34960;SDS011;30789;52.030;7.110;2023-04-25T14:24:12;1.00;;;0.70;;
34960;SDS011;30789;52.030;7.110;2023-04-25T14:26:41;3.25;;;0.73;;
34960;SDS011;30789;52.030;7.110;2023-04-25T14:29:08;1.15;;;0.57;;
34960;SDS011;30789;52.030;7.110;2023-04-25T14:31:36;1.90;;;0.73;;
34960;SDS011;30789;52.030;7.110;2023-04-25T14:34:03;1.63;;;0.80;;
34960;SDS011;30789;52.030;7.110;2023-04-25T14:36:31;4.70;;;0.80;;
34960;SDS011;30789;52.030;7.110;2023-04-25T14:38:59;1.27;;;0.70;;
34960;SDS011;30789;52.030;7.110;2023-04-25T14:41:26;1.40;;;0.60;;
34960;SDS011;30789;52.030;7.110;2023-04-25T14:43:54;3.10;;;0.73;;
34960;SDS011;30789;52.030;7.110;2023-04-25T14:46:21;1.65;;;0.40;;